createdAt,value
2023-02-22T00:01:47.585Z,95123.69
2023-02-22T00:04:16.070Z,95118.81
2023-02-22T00:06:42.747Z,95122.31
2023-02-22T00:09:10.358Z,95120.00
2023-02-22T00:11:38.586Z,95117.53
2023-02-22T00:14:05.385Z,95119.31
2023-02-22T00:16:31.982Z,95122.25
2023-02-22T00:18:58.523Z,95119.56
2023-02-22T00:21:25.118Z,95118.84
2023-02-22T00:23:54.647Z,95119.00
2023-02-22T00:26:23.470Z,95115.91
2023-02-22T00:28:52.792Z,95121.88
2023-02-22T00:31:20.811Z,95117.72
2023-02-22T00:33:47.579Z,95113.03
2023-02-22T00:36:14.521Z,95118.16
2023-02-22T00:38:42.224Z,95114.31
2023-02-22T00:41:09.690Z,95104.50
2023-02-22T00:43:36.369Z,95127.13
2023-02-22T00:46:03.161Z,95119.47
2023-02-22T00:48:29.817Z,95115.00
2023-02-22T00:50:56.561Z,95116.50
2023-02-22T00:53:25.172Z,95120.94
2023-02-22T00:55:52.233Z,95108.16
2023-02-22T00:58:18.883Z,95111.13
2023-02-22T01:00:46.209Z,95108.78
2023-02-22T01:03:15.896Z,95109.09
2023-02-22T01:05:43.895Z,95115.34
2023-02-22T01:08:13.211Z,95119.59
2023-02-22T01:10:40.579Z,95114.75
2023-02-22T01:13:09.112Z,95110.44
2023-02-22T01:15:41.878Z,95112.81
2023-02-22T01:18:09.545Z,95105.91
2023-02-22T01:20:37.063Z,95110.13
2023-02-22T01:23:06.786Z,95117.38
2023-02-22T01:25:34.365Z,95109.28
2023-02-22T01:28:02.259Z,95110.28
2023-02-22T01:30:33.133Z,95112.75
2023-02-22T01:33:01.147Z,95101.91
2023-02-22T01:35:33.637Z,95097.28
2023-02-22T01:38:00.584Z,95097.47
2023-02-22T01:40:33.446Z,95085.84
2023-02-22T01:43:06.682Z,95078.53
2023-02-22T01:45:33.166Z,95101.41
2023-02-22T01:48:18.151Z,95093.22
2023-02-22T01:50:56.955Z,95097.44
2023-02-22T01:53:34.880Z,95087.44
2023-02-22T01:56:02.937Z,95088.88
2023-02-22T01:58:33.572Z,95088.47
2023-02-22T02:01:01.178Z,95079.13
2023-02-22T02:03:35.410Z,95086.69
2023-02-22T02:06:05.227Z,95079.88
2023-02-22T02:08:58.856Z,95083.47
2023-02-22T02:15:31.176Z,95073.84
2023-02-22T02:18:01.562Z,95073.28
2023-02-22T02:20:38.485Z,95070.22
2023-02-22T02:23:29.794Z,95072.31
2023-02-22T02:26:21.967Z,95065.59
2023-02-22T02:29:07.111Z,95073.41
2023-02-22T02:32:16.511Z,95064.94
2023-02-22T02:35:08.683Z,95063.06
2023-02-22T02:37:42.352Z,95065.09
2023-02-22T02:40:30.578Z,95049.13
2023-02-22T02:43:01.510Z,95060.78
2023-02-22T02:45:54.689Z,95057.50
2023-02-22T02:48:25.602Z,95059.69
2023-02-22T02:50:56.490Z,95049.28
2023-02-22T02:53:27.744Z,95055.00
2023-02-22T02:55:54.367Z,95042.47
2023-02-22T02:58:23.937Z,95057.88
2023-02-22T03:00:55.641Z,95058.53
2023-02-22T03:03:52.471Z,95057.69
2023-02-22T03:06:47.484Z,95055.56
2023-02-22T03:09:25.771Z,95054.75
2023-02-22T03:12:12.855Z,95055.09
2023-02-22T03:15:15.367Z,95057.38
2023-02-22T03:17:58.360Z,95045.78
2023-02-22T03:20:37.579Z,95051.13
2023-02-22T03:23:11.500Z,95044.50
2023-02-22T03:25:43.242Z,95045.34
2023-02-22T03:28:14.256Z,95045.94
2023-02-22T03:31:02.103Z,95048.13
2023-02-22T03:33:42.885Z,95045.00
2023-02-22T03:36:28.532Z,95035.50
2023-02-22T03:38:59.340Z,95046.63
2023-02-22T03:41:28.969Z,95045.09
2023-02-22T03:44:18.935Z,95041.91
2023-02-22T03:46:48.845Z,95038.63
2023-02-22T03:49:29.897Z,95040.72
2023-02-22T03:51:56.982Z,95047.78
2023-02-22T03:54:23.834Z,95037.63
2023-02-22T03:56:56.774Z,95040.81
2023-02-22T03:59:27.584Z,95036.44
2023-02-22T04:01:56.041Z,95048.94
2023-02-22T04:04:24.314Z,95042.06
2023-02-22T04:06:52.040Z,95033.50
2023-02-22T04:09:19.085Z,95039.88
2023-02-22T04:11:46.490Z,95037.53
2023-02-22T04:14:13.425Z,95029.97
2023-02-22T04:16:40.043Z,95037.38
2023-02-22T04:19:06.764Z,95032.91
2023-02-22T04:21:33.330Z,95032.06
2023-02-22T04:24:00.001Z,95032.06
2023-02-22T04:26:26.624Z,95031.75
2023-02-22T04:28:53.238Z,95030.97
2023-02-22T04:31:20.152Z,95039.22
2023-02-22T04:33:46.959Z,95033.41
2023-02-22T04:36:15.981Z,95035.34
2023-02-22T04:38:43.886Z,95038.00
2023-02-22T04:41:11.388Z,95016.09
2023-02-22T04:43:38.116Z,95031.06
2023-02-22T04:46:04.993Z,95032.81
2023-02-22T04:48:31.555Z,95034.50
2023-02-22T04:50:58.233Z,95034.66
2023-02-22T04:53:24.848Z,95033.50
2023-02-22T04:55:51.522Z,95040.16
2023-02-22T04:58:18.372Z,95033.50
2023-02-22T05:00:45.167Z,95036.84
2023-02-22T05:03:11.760Z,95036.38
2023-02-22T05:05:38.612Z,95034.50
2023-02-22T05:08:05.408Z,95044.56
2023-02-22T05:10:31.938Z,95034.59
2023-02-22T05:12:58.640Z,95029.97
2023-02-22T05:15:25.651Z,95033.50
2023-02-22T05:17:53.151Z,95026.09
2023-02-22T05:20:30.171Z,95032.22
2023-02-22T05:22:58.155Z,95027.94
2023-02-22T05:25:25.312Z,95033.78
2023-02-22T05:27:57.400Z,95031.63
2023-02-22T05:30:28.918Z,95031.69
2023-02-22T05:32:55.838Z,95031.78
2023-02-22T05:35:23.872Z,95036.91
2023-02-22T05:37:50.864Z,95032.56
2023-02-22T05:40:22.670Z,95034.50
2023-02-22T05:42:50.236Z,95037.00
2023-02-22T05:45:19.800Z,95033.56
2023-02-22T05:47:46.529Z,95032.22
2023-02-22T05:50:14.514Z,95022.72
2023-02-22T05:52:41.813Z,95033.22
2023-02-22T05:55:09.796Z,95035.97
2023-02-22T05:57:36.767Z,95038.75
2023-02-22T06:00:05.729Z,95023.38
2023-02-22T06:02:32.867Z,95030.00
2023-02-22T06:04:59.751Z,95034.94
2023-02-22T06:07:27.206Z,95025.94
2023-02-22T06:09:53.945Z,95029.19
2023-02-22T06:12:20.492Z,95025.59
2023-02-22T06:14:47.115Z,95035.13
2023-02-22T06:17:15.451Z,95030.78
2023-02-22T06:19:42.127Z,95035.25
2023-02-22T06:22:14.989Z,95023.31
2023-02-22T06:24:41.480Z,95035.41
2023-02-22T06:27:08.439Z,95013.38
2023-02-22T06:29:34.932Z,95032.88
2023-02-22T06:32:01.664Z,95022.63
2023-02-22T06:34:28.272Z,95024.53
2023-02-22T06:36:54.828Z,95036.47
2023-02-22T06:39:21.311Z,95030.09
2023-02-22T06:41:48.298Z,95029.44
2023-02-22T06:44:15.383Z,95034.81
2023-02-22T06:46:51.216Z,95041.13
2023-02-22T06:49:19.496Z,95042.25
2023-02-22T06:51:46.701Z,95044.59
2023-02-22T06:54:14.142Z,95056.44
2023-02-22T06:56:40.732Z,95045.94
2023-02-22T06:59:08.698Z,95046.09
2023-02-22T07:01:35.645Z,95044.66
2023-02-22T07:04:02.616Z,95050.94
2023-02-22T07:06:29.269Z,95054.41
2023-02-22T07:08:56.056Z,95046.91
2023-02-22T07:11:22.691Z,95049.81
2023-02-22T07:13:49.246Z,95047.28
2023-02-22T07:16:15.825Z,95048.31
2023-02-22T07:18:42.525Z,95053.69
2023-02-22T07:21:09.162Z,95056.31
2023-02-22T07:23:35.736Z,95065.03
2023-02-22T07:26:03.562Z,95067.28
2023-02-22T07:28:30.121Z,95057.19
2023-02-22T07:30:56.709Z,95066.41
2023-02-22T07:33:23.299Z,95050.69
2023-02-22T07:35:51.343Z,95060.56
2023-02-22T07:38:20.551Z,95064.28
2023-02-22T07:40:47.200Z,95053.56
2023-02-22T07:43:27.720Z,95054.66
2023-02-22T07:45:56.896Z,95051.59
2023-02-22T07:48:25.801Z,95060.41
2023-02-22T07:50:52.405Z,95055.19
2023-02-22T07:53:26.696Z,95059.31
2023-02-22T07:55:55.369Z,95042.72
2023-02-22T07:58:24.022Z,95059.31
2023-02-22T08:00:50.911Z,95058.47
2023-02-22T08:03:20.287Z,95058.00
2023-02-22T08:05:49.965Z,95055.22
2023-02-22T08:08:19.406Z,95050.59
2023-02-22T08:10:47.366Z,95045.50
2023-02-22T08:13:14.592Z,95038.34
2023-02-22T08:15:42.802Z,95039.59
2023-02-22T08:18:11.980Z,95041.88
2023-02-22T08:20:41.922Z,95049.13
2023-02-22T08:23:09.664Z,95044.88
2023-02-22T08:25:36.566Z,95045.03
2023-02-22T08:28:09.436Z,95038.91
2023-02-22T08:30:39.793Z,95041.66
2023-02-22T08:33:06.956Z,95044.81
2023-02-22T08:35:34.011Z,95045.78
2023-02-22T08:38:03.911Z,95041.06
2023-02-22T08:40:33.257Z,95037.13
2023-02-22T08:43:01.711Z,95042.81
2023-02-22T08:45:29.150Z,95048.69
2023-02-22T08:47:55.827Z,95045.78
2023-02-22T08:50:25.891Z,95044.31
2023-02-22T08:52:58.725Z,95045.78
2023-02-22T08:55:28.817Z,95045.13
2023-02-22T08:57:55.466Z,95041.41
2023-02-22T09:00:25.388Z,95033.94
2023-02-22T09:02:53.065Z,95032.78
2023-02-22T09:05:20.200Z,95046.72
2023-02-22T09:07:47.555Z,95038.44
2023-02-22T09:10:19.988Z,95043.34
2023-02-22T09:12:46.526Z,95043.31
2023-02-22T09:15:13.159Z,95042.19
2023-02-22T09:17:39.868Z,95046.69
2023-02-22T09:20:07.995Z,95042.94
2023-02-22T09:22:34.654Z,95044.41
2023-02-22T09:25:11.353Z,95045.97
2023-02-22T09:27:43.711Z,95033.31
2023-02-22T09:30:23.889Z,95041.84
2023-02-22T09:32:53.219Z,95037.00
2023-02-22T09:35:26.883Z,95043.63
2023-02-22T09:37:58.554Z,95042.22
2023-02-22T09:40:29.903Z,95042.53
2023-02-22T09:43:24.139Z,95040.97
2023-02-22T09:46:21.615Z,95048.22
2023-02-22T09:48:53.563Z,95033.88
2023-02-22T09:51:23.208Z,95035.97
2023-02-22T09:53:52.361Z,95034.41
2023-02-22T09:56:20.884Z,95038.06
2023-02-22T09:58:52.309Z,95035.53
2023-02-22T10:01:39.188Z,95038.88
2023-02-22T10:04:11.290Z,95028.03
2023-02-22T10:06:42.126Z,95035.09
2023-02-22T10:09:11.008Z,95026.75
2023-02-22T10:11:46.654Z,95032.84
2023-02-22T10:14:57.441Z,95035.00
2023-02-22T10:17:35.933Z,95037.63
2023-02-22T10:20:04.934Z,95029.97
2023-02-22T10:22:51.548Z,95028.94
2023-02-22T10:25:22.510Z,95027.34
2023-02-22T10:27:57.909Z,95018.81
2023-02-22T10:30:35.173Z,95031.22
2023-02-22T10:33:39.812Z,95027.06
2023-02-22T10:36:15.220Z,95028.69
2023-02-22T10:38:48.754Z,95016.44
2023-02-22T10:41:26.393Z,95020.06
2023-02-22T10:43:53.091Z,95021.19
2023-02-22T10:46:22.822Z,95028.41
2023-02-22T10:48:53.504Z,95018.00
2023-02-22T10:51:20.906Z,95026.00
2023-02-22T10:53:59.209Z,95029.38
2023-02-22T10:56:28.032Z,95025.19
2023-02-22T10:59:00.582Z,95019.28
2023-02-22T11:01:33.133Z,95024.56
2023-02-22T11:04:02.806Z,95023.63
2023-02-22T11:06:30.138Z,95018.84
2023-02-22T11:09:11.946Z,95006.19
2023-02-22T11:11:41.941Z,95010.75
2023-02-22T11:14:10.862Z,95003.81
2023-02-22T11:16:42.268Z,95004.50
2023-02-22T11:19:27.345Z,95002.22
2023-02-22T11:21:59.209Z,94999.97
2023-02-22T11:24:30.352Z,94993.34
2023-02-22T11:27:02.665Z,95002.22
2023-02-22T11:29:36.353Z,94993.75
2023-02-22T11:32:21.397Z,94985.50
2023-02-22T11:35:03.574Z,94977.72
2023-02-22T11:37:37.263Z,94977.09
2023-02-22T11:40:18.186Z,94979.72
2023-02-22T11:42:45.118Z,94971.69
2023-02-22T11:45:24.912Z,94975.63
2023-02-22T11:47:52.652Z,94963.44
2023-02-22T11:50:28.108Z,94974.78
2023-02-22T11:53:05.360Z,94968.25
2023-02-22T11:55:53.795Z,94956.50
2023-02-22T11:58:44.184Z,94954.16
2023-02-22T12:01:17.585Z,94952.81
2023-02-22T12:04:36.821Z,94944.59
2023-02-22T12:07:36.678Z,94938.50
2023-02-22T12:10:37.386Z,94937.63
2023-02-22T12:13:10.148Z,94939.69
2023-02-22T12:15:44.463Z,94942.09
2023-02-22T12:18:32.256Z,94935.59
2023-02-22T12:21:02.197Z,94932.69
2023-02-22T12:23:46.775Z,94936.47
2023-02-22T12:26:32.418Z,94928.06
2023-02-22T12:29:05.510Z,94918.88
2023-02-22T12:31:33.998Z,94924.69
2023-02-22T12:34:28.085Z,94915.06
2023-02-22T12:37:21.188Z,94913.13
2023-02-22T12:40:08.433Z,94922.22
2023-02-22T12:42:47.253Z,94917.97
2023-02-22T12:45:21.986Z,94906.41
2023-02-22T12:48:02.343Z,94914.06
2023-02-22T12:50:34.479Z,94911.13
2023-02-22T12:53:14.546Z,94904.53
2023-02-22T12:55:47.654Z,94903.72
2023-02-22T12:58:39.001Z,94905.97
2023-02-22T13:01:13.984Z,94907.00
2023-02-22T13:03:44.632Z,94905.19
2023-02-22T13:06:26.436Z,94908.28
2023-02-22T13:09:01.990Z,94872.66
2023-02-22T13:11:37.171Z,94894.13
2023-02-22T13:14:27.880Z,94892.97
2023-02-22T13:17:21.091Z,94892.31
2023-02-22T13:20:02.867Z,94892.84
2023-02-22T13:22:35.205Z,94898.91
2023-02-22T13:25:41.234Z,94894.03
2023-02-22T13:28:40.292Z,94884.44
2023-02-22T13:31:06.923Z,94893.34
2023-02-22T13:33:56.986Z,94898.25
2023-02-22T13:36:44.721Z,94884.28
2023-02-22T13:39:39.373Z,94890.75
2023-02-22T13:42:25.557Z,94901.38
2023-02-22T13:45:13.369Z,94894.31
2023-02-22T13:47:42.634Z,94895.56
2023-02-22T13:50:27.808Z,94889.69
2023-02-22T13:52:58.143Z,94893.59
2023-02-22T13:55:31.487Z,94893.69
2023-02-22T13:58:04.649Z,94900.69
2023-02-22T14:00:40.976Z,94898.63
2023-02-22T14:03:27.652Z,94898.56
2023-02-22T14:05:57.149Z,94891.28
2023-02-22T14:08:27.956Z,94898.72
2023-02-22T14:11:12.935Z,94901.88
2023-02-22T14:13:55.928Z,94895.09
2023-02-22T14:16:26.316Z,94891.50
2023-02-22T14:19:13.408Z,94898.56
2023-02-22T14:22:02.062Z,94897.22
2023-02-22T14:24:42.734Z,94904.13
2023-02-22T14:27:09.983Z,94899.25
2023-02-22T14:29:36.886Z,94905.53
2023-02-22T14:32:10.714Z,94897.81
2023-02-22T14:34:54.606Z,94904.56
2023-02-22T14:37:25.326Z,94912.00
2023-02-22T14:39:53.673Z,94902.56
2023-02-22T14:42:34.348Z,94902.63
2023-02-22T14:45:13.962Z,94909.81
2023-02-22T14:48:03.677Z,94912.78
2023-02-22T14:50:45.396Z,94907.22
2023-02-22T14:53:27.469Z,94913.94
2023-02-22T14:56:14.558Z,94910.88
2023-02-22T14:58:58.976Z,94907.13
2023-02-22T15:01:40.298Z,94917.22
2023-02-22T15:04:31.109Z,94912.03
2023-02-22T15:07:00.004Z,94913.06
2023-02-22T15:09:34.719Z,94922.72
2023-02-22T15:12:05.028Z,94910.69
2023-02-22T15:14:37.984Z,94916.78
2023-02-22T15:17:12.141Z,94915.56
2023-02-22T15:19:41.686Z,94909.44
2023-02-22T15:22:22.689Z,94917.63
2023-02-22T15:25:01.120Z,94916.28
2023-02-22T15:27:28.830Z,94921.53
2023-02-22T15:30:04.805Z,94919.22
2023-02-22T15:32:50.007Z,94929.06
2023-02-22T15:35:24.041Z,94925.56
2023-02-22T15:38:17.555Z,94928.19
2023-02-22T15:40:45.579Z,94932.78
2023-02-22T15:43:31.161Z,94918.63
2023-02-22T15:45:59.817Z,94931.50
2023-02-22T15:48:27.657Z,94930.97
2023-02-22T15:51:07.121Z,94918.28
2023-02-22T15:53:39.937Z,94929.47
2023-02-22T15:56:12.155Z,94929.38
2023-02-22T15:58:39.274Z,94928.41
2023-02-22T16:01:14.153Z,94936.97
2023-02-22T16:03:50.188Z,94942.13
2023-02-22T16:06:37.784Z,94932.91
2023-02-22T16:09:10.549Z,94934.06
2023-02-22T16:11:43.208Z,94927.91
2023-02-22T16:14:35.887Z,94933.84
2023-02-22T16:17:31.114Z,94937.81
2023-02-22T16:19:59.574Z,94940.47
2023-02-22T16:22:35.094Z,94930.06
2023-02-22T16:25:21.616Z,94932.56
2023-02-22T16:28:01.510Z,94949.28
2023-02-22T16:30:37.508Z,94945.53
2023-02-22T16:33:06.586Z,94941.47
2023-02-22T16:35:35.655Z,94942.28
2023-02-22T16:38:07.919Z,94948.25
2023-02-22T16:40:39.061Z,94948.00
2023-02-22T16:43:15.112Z,94943.25
2023-02-22T16:45:42.666Z,94936.91
2023-02-22T16:48:30.265Z,94949.94
2023-02-22T16:51:02.522Z,94937.16
2023-02-22T16:53:32.098Z,94942.56
2023-02-22T16:56:04.323Z,94947.53
2023-02-22T16:58:36.736Z,94948.38
2023-02-22T17:01:03.490Z,94944.22
2023-02-22T17:03:30.064Z,94959.28
2023-02-22T17:05:56.724Z,94952.59
2023-02-22T17:08:24.030Z,94957.78
2023-02-22T17:10:52.760Z,94948.75
2023-02-22T17:13:25.681Z,94954.50
2023-02-22T17:15:54.937Z,94954.91
2023-02-22T17:18:23.029Z,94960.13
2023-02-22T17:20:51.807Z,94964.31
2023-02-22T17:23:20.149Z,94963.91
2023-02-22T17:25:53.751Z,94967.28
2023-02-22T17:28:21.736Z,94974.44
2023-02-22T17:30:49.165Z,94964.63
2023-02-22T17:33:18.185Z,94971.38
2023-02-22T17:35:46.975Z,94950.34
2023-02-22T17:38:18.475Z,94968.00
2023-02-22T17:40:56.330Z,94977.81
2023-02-22T17:43:24.034Z,94983.44
2023-02-22T17:45:51.038Z,94982.63
2023-02-22T17:48:18.588Z,94975.88
2023-02-22T17:50:46.590Z,94984.13
2023-02-22T17:53:14.109Z,94987.50
2023-02-22T17:55:42.238Z,94979.19
2023-02-22T17:58:14.964Z,94984.84
2023-02-22T18:00:44.736Z,94985.59
2023-02-22T18:03:21.178Z,94984.13
2023-02-22T18:05:50.522Z,94967.66
2023-02-22T18:08:17.175Z,94986.13
2023-02-22T18:10:44.414Z,94989.84
2023-02-22T18:13:18.012Z,94991.75
2023-02-22T18:15:45.807Z,94991.38
2023-02-22T18:18:12.754Z,94991.75
2023-02-22T18:20:43.950Z,94998.13
2023-02-22T18:23:19.622Z,94992.47
2023-02-22T18:26:07.665Z,94992.50
2023-02-22T18:28:36.404Z,94984.94
2023-02-22T18:31:10.162Z,94987.97
2023-02-22T18:33:36.839Z,94986.88
2023-02-22T18:36:03.703Z,94989.13
2023-02-22T18:38:30.313Z,94989.13
2023-02-22T18:40:59.859Z,94987.28
2023-02-22T18:43:26.711Z,94985.00
2023-02-22T18:45:53.456Z,94975.25
2023-02-22T18:48:20.262Z,94977.50
2023-02-22T18:50:46.798Z,94980.84
2023-02-22T18:53:13.289Z,94968.00
2023-02-22T18:55:39.914Z,94966.88
2023-02-22T18:58:06.450Z,94975.50
2023-02-22T19:00:35.246Z,94969.06
2023-02-22T19:03:01.864Z,94964.53
2023-02-22T19:05:28.695Z,94969.91
2023-02-22T19:07:55.340Z,94969.50
2023-02-22T19:10:22.539Z,94959.00
2023-02-22T19:12:49.288Z,94963.19
2023-02-22T19:15:15.993Z,94954.91
2023-02-22T19:17:42.924Z,94964.59
2023-02-22T19:20:10.758Z,94965.41
2023-02-22T19:25:05.590Z,94967.69
2023-02-22T19:27:34.114Z,94969.22
2023-02-22T19:30:00.975Z,94964.69
2023-02-22T19:32:27.652Z,94966.22
2023-02-22T19:35:01.969Z,94964.00
2023-02-22T19:37:35.704Z,94973.41
2023-02-22T19:40:09.944Z,94963.63
2023-02-22T19:42:36.523Z,94972.66
2023-02-22T19:45:03.211Z,94981.66
2023-02-22T19:47:29.800Z,94970.75
2023-02-22T19:49:59.688Z,94968.47
2023-02-22T19:52:28.916Z,94973.75
2023-02-22T19:54:55.580Z,94971.47
2023-02-22T19:57:24.254Z,94978.25
2023-02-22T19:59:50.990Z,94975.25
2023-02-22T20:02:17.859Z,94971.47
2023-02-22T20:04:44.569Z,94968.78
2023-02-22T20:07:11.121Z,94955.66
2023-02-22T20:09:39.779Z,94959.44
2023-02-22T20:12:07.114Z,94967.72
2023-02-22T20:14:34.185Z,94966.22
2023-02-22T20:17:00.936Z,94970.72
2023-02-22T20:19:28.110Z,94963.97
2023-02-22T20:21:55.983Z,94973.72
2023-02-22T20:24:24.072Z,94967.72
2023-02-22T20:26:55.808Z,94969.63
2023-02-22T20:29:29.345Z,94977.91
2023-02-22T20:31:58.504Z,94970.75
2023-02-22T20:34:26.521Z,94978.22
2023-02-22T20:36:53.974Z,94973.69
2023-02-22T20:39:20.652Z,94978.19
2023-02-22T20:41:47.572Z,94978.94
2023-02-22T20:44:16.981Z,94974.44
2023-02-22T20:46:44.267Z,94975.97
2023-02-22T20:49:19.045Z,94972.25
2023-02-22T20:51:46.998Z,94972.63
2023-02-22T20:54:14.160Z,94983.47
2023-02-22T20:56:43.308Z,94966.22
2023-02-22T20:59:15.246Z,94966.25
2023-02-22T21:01:42.613Z,94976.75
2023-02-22T21:04:11.111Z,94965.84
2023-02-22T21:06:39.060Z,94976.75
2023-02-22T21:09:08.827Z,94976.00
2023-02-22T21:11:36.674Z,94969.63
2023-02-22T21:14:03.872Z,94972.63
2023-02-22T21:16:33.366Z,94970.72
2023-02-22T21:19:02.122Z,94978.25
2023-02-22T21:21:29.985Z,94981.22
2023-02-22T21:24:01.788Z,94973.34
2023-02-22T21:26:32.453Z,94979.00
2023-02-22T21:29:01.203Z,94981.22
2023-02-22T21:31:28.754Z,94978.56
2023-02-22T21:33:58.058Z,94982.00
2023-02-22T21:36:26.031Z,94982.75
2023-02-22T21:39:00.993Z,94974.53
2023-02-22T21:41:30.459Z,94977.88
2023-02-22T21:43:58.581Z,94976.00
2023-02-22T21:46:27.622Z,94982.78
2023-02-22T21:48:58.501Z,94972.59
2023-02-22T21:51:34.530Z,94973.69
2023-02-22T21:54:04.091Z,94971.50
2023-02-22T21:56:34.422Z,94978.25
2023-02-22T21:59:06.551Z,94974.50
2023-02-22T22:01:47.230Z,94974.13
2023-02-22T22:04:18.837Z,94967.72
2023-02-22T22:06:50.937Z,94961.69
2023-02-22T22:09:18.802Z,94966.97
2023-02-22T22:11:47.071Z,94970.72
2023-02-22T22:14:13.727Z,94970.72
2023-02-22T22:16:40.675Z,94966.25
2023-02-22T22:19:08.257Z,94963.97
2023-02-22T22:21:34.888Z,94954.22
2023-02-22T22:24:01.448Z,94957.97
2023-02-22T22:26:28.107Z,94963.22
2023-02-22T22:28:58.306Z,94973.00
2023-02-22T22:31:26.425Z,94964.34
2023-02-22T22:33:54.239Z,94957.97
2023-02-22T22:36:22.102Z,94967.75
2023-02-22T22:38:49.161Z,94956.06
2023-02-22T22:41:19.797Z,94964.00
2023-02-22T22:43:47.306Z,94959.44
2023-02-22T22:46:16.417Z,94965.47
2023-02-22T22:48:47.060Z,94958.72
2023-02-22T22:51:18.595Z,94964.38
2023-02-22T22:53:46.945Z,94956.09
2023-02-22T22:56:29.097Z,94951.19
2023-02-22T22:58:58.022Z,94952.69
2023-02-22T23:01:34.186Z,94944.44
2023-02-22T23:04:03.859Z,94953.47
2023-02-22T23:06:36.659Z,94942.16
2023-02-22T23:09:11.410Z,94944.44
2023-02-22T23:11:46.524Z,94947.09
2023-02-22T23:14:31.392Z,94946.72
2023-02-22T23:17:05.527Z,94954.22
2023-02-22T23:19:34.601Z,94951.22
2023-02-22T23:22:05.277Z,94950.88
2023-02-22T23:24:36.134Z,94954.25
2023-02-22T23:27:07.357Z,94949.75
2023-02-22T23:29:37.813Z,94948.25
2023-02-22T23:32:06.025Z,94946.72
2023-02-22T23:34:33.827Z,94950.50
2023-02-22T23:37:00.308Z,94936.97
2023-02-22T23:39:27.292Z,94938.47
2023-02-22T23:42:01.217Z,94942.22
2023-02-22T23:44:29.043Z,94933.97
2023-02-22T23:46:56.132Z,94937.31
2023-02-22T23:49:25.377Z,94940.69
2023-02-22T23:51:52.691Z,94937.69
2023-02-22T23:54:21.154Z,94933.19
2023-02-22T23:56:56.634Z,94934.66
2023-02-22T23:59:25.494Z,94933.16
